< Typhoon 199401 1994 Season Typhoon 199403 >
Typhoon 199402 (PAGE)
General InformationTrack Information on Google MapsDetailed Wind InformationList of All Images || Disaster Info.ResourceGoogle EarthGE AnimationAtom FeedGeoJSON
Detalied Best Track (Time Zone = UTC)
Year Month Day Hour Lat. Long. Pressure (hPa) Wind (kt) Class Image Chart
1994 5 11 18 11.7 140.5 1004 0 2 Image Chart
1994 5 12 00 11.9 139.2 1004 0 2 Image Chart
1994 5 12 06 12.1 138.3 1002 0 2 Image Chart
1994 5 12 12 12.5 137.5 1002 0 2 Image Chart
1994 5 12 18 13.1 136.6 1000 0 2 Image Chart
1994 5 13 00 13.9 135.9 998 35 3 Image Chart
1994 5 13 06 14.3 135.6 996 40 3 Image Chart
1994 5 13 12 14.9 135.3 994 40 3 Image Chart
1994 5 13 18 15.6 135.2 994 40 3 Image Chart
1994 5 14 00 16.3 135.2 990 45 3 Image Chart
1994 5 14 06 16.9 135.5 985 50 4 Image Chart
1994 5 14 12 17.5 136.2 980 55 4 Image Chart
1994 5 14 18 18.4 136.8 980 55 4 Image Chart
1994 5 15 00 19.3 137.2 975 60 4 Image Chart
1994 5 15 06 20.4 137.5 970 65 5 Image Chart
1994 5 15 12 21.3 137.8 965 70 5 Image Chart
1994 5 15 18 22.3 138.3 965 70 5 Image Chart
1994 5 16 00 23.3 139.1 965 70 5 Image Chart
1994 5 16 06 24.4 140.5 965 70 5 Image Chart
1994 5 16 09 24.9 141.2 970 70 5 Image Chart
1994 5 16 12 25.3 141.8 975 60 4 Image Chart
1994 5 16 15 25.7 142.5 975 60 4 Image Chart
1994 5 16 18 26.3 143.4 980 60 4 Image Chart
1994 5 16 21 26.9 144.3 980 60 4 Image Chart
1994 5 17 00 28.1 145.5 985 50 4 Image Chart
1994 5 17 06 29.2 146.5 990 45 3 Image Chart
1994 5 17 12 30.3 147.7 992 45 3 Image Chart
1994 5 17 18 31.9 149.8 994 40 3 Image Chart
1994 5 18 00 35.0 155.0 998 0 6 Image Chart
1994 5 18 06 37.0 159.0 1000 0 6 Image Chart
1994 5 18 12 41.0 165.0 996 0 6 Image Chart
1994 5 18 18 44.5 168.5 992 0 6 Image Chart
1994 5 19 00 48.0 171.0 988 0 6 Image Chart
1994 5 19 06 50.5 174.0 984 0 6 Image Chart
1994 5 19 12 53.0 179.0 984 0 6 Image Chart
1994 5 19 18 54.0 184.5 980 0 6 Image Chart
Japan Meteorological Agency Best Track Data | Correction Date : 1995-01-30
< Typhoon 199401 1994 Season Typhoon 199403 >

Help